sensor_id;sensor_type;location;lat;lon;timestamp;P1;durP1;ratioP1;P2;durP2;ratioP2
34741;SDS011;20968;42.696;23.360;2022-11-12T00:14:56;38.92;;;19.00;;
34741;SDS011;20968;42.696;23.360;2022-11-12T00:17:21;35.53;;;19.40;;
34741;SDS011;20968;42.696;23.360;2022-11-12T00:19:47;32.22;;;17.73;;
34741;SDS011;20968;42.696;23.360;2022-11-12T00:22:12;33.53;;;17.60;;
34741;SDS011;20968;42.696;23.360;2022-11-12T00:24:38;35.95;;;18.48;;
34741;SDS011;20968;42.696;23.360;2022-11-12T00:27:03;31.27;;;17.02;;
34741;SDS011;20968;42.696;23.360;2022-11-12T00:29:28;37.22;;;18.42;;
34741;SDS011;20968;42.696;23.360;2022-11-12T00:31:54;32.47;;;17.13;;
34741;SDS011;20968;42.696;23.360;2022-11-12T00:34:19;37.75;;;18.63;;
34741;SDS011;20968;42.696;23.360;2022-11-12T00:36:45;31.58;;;17.13;;
34741;SDS011;20968;42.696;23.360;2022-11-12T00:39:10;40.63;;;17.65;;
34741;SDS011;20968;42.696;23.360;2022-11-12T00:41:35;36.55;;;16.88;;
34741;SDS011;20968;42.696;23.360;2022-11-12T00:44:01;35.05;;;15.60;;
34741;SDS011;20968;42.696;23.360;2022-11-12T00:46:26;33.80;;;17.38;;
34741;SDS011;20968;42.696;23.360;2022-11-12T00:48:52;32.25;;;15.95;;
34741;SDS011;20968;42.696;23.360;2022-11-12T00:51:17;30.55;;;17.00;;
34741;SDS011;20968;42.696;23.360;2022-11-12T00:53:42;30.95;;;17.48;;
34741;SDS011;20968;42.696;23.360;2022-11-12T00:56:12;31.33;;;16.80;;
34741;SDS011;20968;42.696;23.360;2022-11-12T00:58:37;33.58;;;16.63;;
34741;SDS011;20968;42.696;23.360;2022-11-12T01:01:10;31.80;;;15.80;;
34741;SDS011;20968;42.696;23.360;2022-11-12T01:03:37;35.25;;;17.20;;
34741;SDS011;20968;42.696;23.360;2022-11-12T01:06:07;32.75;;;16.58;;
34741;SDS011;20968;42.696;23.360;2022-11-12T01:08:35;34.15;;;17.05;;
34741;SDS011;20968;42.696;23.360;2022-11-12T01:11:05;36.10;;;18.17;;
34741;SDS011;20968;42.696;23.360;2022-11-12T01:13:30;48.28;;;22.70;;
34741;SDS011;20968;42.696;23.360;2022-11-12T01:15:56;37.55;;;18.92;;
34741;SDS011;20968;42.696;23.360;2022-11-12T01:18:21;45.95;;;25.70;;
34741;SDS011;20968;42.696;23.360;2022-11-12T01:20:47;37.95;;;20.75;;
34741;SDS011;20968;42.696;23.360;2022-11-12T01:23:12;34.63;;;20.38;;
34741;SDS011;20968;42.696;23.360;2022-11-12T01:25:38;34.92;;;17.48;;
34741;SDS011;20968;42.696;23.360;2022-11-12T01:28:03;34.58;;;18.75;;
34741;SDS011;20968;42.696;23.360;2022-11-12T01:30:29;28.95;;;15.90;;
34741;SDS011;20968;42.696;23.360;2022-11-12T01:32:55;30.30;;;16.05;;
34741;SDS011;20968;42.696;23.360;2022-11-12T01:35:21;30.33;;;16.15;;
34741;SDS011;20968;42.696;23.360;2022-11-12T01:37:46;30.42;;;15.68;;
34741;SDS011;20968;42.696;23.360;2022-11-12T01:40:11;24.63;;;14.05;;
34741;SDS011;20968;42.696;23.360;2022-11-12T01:42:37;22.70;;;11.75;;
34741;SDS011;20968;42.696;23.360;2022-11-12T01:45:10;23.98;;;12.77;;
34741;SDS011;20968;42.696;23.360;2022-11-12T01:47:40;26.50;;;13.93;;
34741;SDS011;20968;42.696;23.360;2022-11-12T01:53:04;27.95;;;13.52;;
34741;SDS011;20968;42.696;23.360;2022-11-12T01:55:33;23.52;;;12.73;;
34741;SDS011;20968;42.696;23.360;2022-11-12T01:58:06;23.38;;;12.82;;
34741;SDS011;20968;42.696;23.360;2022-11-12T02:00:35;21.95;;;11.93;;
34741;SDS011;20968;42.696;23.360;2022-11-12T02:03:02;27.60;;;13.88;;
34741;SDS011;20968;42.696;23.360;2022-11-12T02:05:33;28.25;;;15.80;;
34741;SDS011;20968;42.696;23.360;2022-11-12T02:08:01;28.98;;;13.07;;
34741;SDS011;20968;42.696;23.360;2022-11-12T02:10:28;21.77;;;11.55;;
34741;SDS011;20968;42.696;23.360;2022-11-12T02:12:54;14.32;;;8.82;;
34741;SDS011;20968;42.696;23.360;2022-11-12T02:15:38;15.95;;;7.53;;
34741;SDS011;20968;42.696;23.360;2022-11-12T02:18:05;15.68;;;7.97;;
34741;SDS011;20968;42.696;23.360;2022-11-12T02:20:34;13.18;;;7.47;;
34741;SDS011;20968;42.696;23.360;2022-11-12T02:23:02;12.13;;;6.60;;
34741;SDS011;20968;42.696;23.360;2022-11-12T02:25:29;9.70;;;6.22;;
34741;SDS011;20968;42.696;23.360;2022-11-12T02:27:56;10.20;;;6.13;;
34741;SDS011;20968;42.696;23.360;2022-11-12T02:30:38;9.18;;;5.10;;
34741;SDS011;20968;42.696;23.360;2022-11-12T02:33:06;8.57;;;5.65;;
34741;SDS011;20968;42.696;23.360;2022-11-12T02:35:32;8.43;;;5.60;;
34741;SDS011;20968;42.696;23.360;2022-11-12T02:37:58;9.63;;;5.28;;
34741;SDS011;20968;42.696;23.360;2022-11-12T02:40:23;10.52;;;5.35;;
34741;SDS011;20968;42.696;23.360;2022-11-12T02:42:49;8.23;;;5.10;;
34741;SDS011;20968;42.696;23.360;2022-11-12T02:45:15;6.93;;;3.83;;
34741;SDS011;20968;42.696;23.360;2022-11-12T02:47:41;7.82;;;4.35;;
34741;SDS011;20968;42.696;23.360;2022-11-12T02:50:07;8.73;;;5.05;;
34741;SDS011;20968;42.696;23.360;2022-11-12T02:52:33;7.25;;;4.38;;
34741;SDS011;20968;42.696;23.360;2022-11-12T02:54:59;8.35;;;4.63;;
34741;SDS011;20968;42.696;23.360;2022-11-12T02:57:24;13.02;;;6.75;;
34741;SDS011;20968;42.696;23.360;2022-11-12T02:59:50;8.70;;;5.47;;
34741;SDS011;20968;42.696;23.360;2022-11-12T03:02:15;7.18;;;4.63;;
34741;SDS011;20968;42.696;23.360;2022-11-12T03:04:41;9.10;;;4.93;;
34741;SDS011;20968;42.696;23.360;2022-11-12T03:07:06;6.00;;;4.15;;
34741;SDS011;20968;42.696;23.360;2022-11-12T03:09:31;7.47;;;5.38;;
34741;SDS011;20968;42.696;23.360;2022-11-12T03:11:57;8.50;;;4.60;;
34741;SDS011;20968;42.696;23.360;2022-11-12T03:14:22;9.65;;;5.20;;
34741;SDS011;20968;42.696;23.360;2022-11-12T03:16:48;9.05;;;4.50;;
34741;SDS011;20968;42.696;23.360;2022-11-12T03:19:13;5.28;;;4.30;;
34741;SDS011;20968;42.696;23.360;2022-11-12T03:21:39;8.88;;;5.50;;
34741;SDS011;20968;42.696;23.360;2022-11-12T03:24:04;11.68;;;4.68;;
34741;SDS011;20968;42.696;23.360;2022-11-12T03:26:30;8.48;;;5.05;;
34741;SDS011;20968;42.696;23.360;2022-11-12T03:28:55;9.02;;;4.60;;
34741;SDS011;20968;42.696;23.360;2022-11-12T03:31:20;6.68;;;4.43;;
34741;SDS011;20968;42.696;23.360;2022-11-12T03:33:46;8.48;;;5.38;;
34741;SDS011;20968;42.696;23.360;2022-11-12T03:36:11;9.90;;;5.53;;
34741;SDS011;20968;42.696;23.360;2022-11-12T03:38:37;9.00;;;5.05;;
34741;SDS011;20968;42.696;23.360;2022-11-12T03:41:02;7.38;;;4.70;;
34741;SDS011;20968;42.696;23.360;2022-11-12T03:43:28;8.73;;;4.57;;
34741;SDS011;20968;42.696;23.360;2022-11-12T03:45:53;7.38;;;4.55;;
34741;SDS011;20968;42.696;23.360;2022-11-12T03:48:19;8.90;;;5.63;;
34741;SDS011;20968;42.696;23.360;2022-11-12T03:50:44;8.50;;;5.38;;
34741;SDS011;20968;42.696;23.360;2022-11-12T03:53:09;7.60;;;5.20;;
34741;SDS011;20968;42.696;23.360;2022-11-12T03:55:35;11.30;;;6.47;;
34741;SDS011;20968;42.696;23.360;2022-11-12T03:58:00;14.52;;;5.80;;
34741;SDS011;20968;42.696;23.360;2022-11-12T04:00:26;13.75;;;6.18;;
34741;SDS011;20968;42.696;23.360;2022-11-12T04:02:53;8.10;;;5.07;;
34741;SDS011;20968;42.696;23.360;2022-11-12T04:05:19;6.82;;;4.30;;
34741;SDS011;20968;42.696;23.360;2022-11-12T04:10:48;7.68;;;4.20;;
34741;SDS011;20968;42.696;23.360;2022-11-12T04:13:14;6.18;;;3.83;;
34741;SDS011;20968;42.696;23.360;2022-11-12T04:16:14;5.40;;;3.50;;
34741;SDS011;20968;42.696;23.360;2022-11-12T04:18:59;8.32;;;4.63;;
34741;SDS011;20968;42.696;23.360;2022-11-12T04:21:45;4.97;;;3.83;;
34741;SDS011;20968;42.696;23.360;2022-11-12T04:24:19;5.93;;;3.85;;
34741;SDS011;20968;42.696;23.360;2022-11-12T04:27:09;6.15;;;4.07;;
34741;SDS011;20968;42.696;23.360;2022-11-12T04:29:42;6.95;;;4.07;;
34741;SDS011;20968;42.696;23.360;2022-11-12T04:32:27;9.05;;;5.38;;
34741;SDS011;20968;42.696;23.360;2022-11-12T04:34:54;5.93;;;4.07;;
34741;SDS011;20968;42.696;23.360;2022-11-12T04:37:20;7.00;;;4.65;;
34741;SDS011;20968;42.696;23.360;2022-11-12T04:39:46;7.60;;;4.55;;
34741;SDS011;20968;42.696;23.360;2022-11-12T04:42:12;6.30;;;3.85;;
34741;SDS011;20968;42.696;23.360;2022-11-12T04:44:56;8.75;;;4.85;;
34741;SDS011;20968;42.696;23.360;2022-11-12T04:47:26;9.20;;;5.57;;
34741;SDS011;20968;42.696;23.360;2022-11-12T04:49:54;12.38;;;4.60;;
34741;SDS011;20968;42.696;23.360;2022-11-12T04:52:20;13.65;;;7.13;;
34741;SDS011;20968;42.696;23.360;2022-11-12T04:54:45;8.75;;;5.40;;
34741;SDS011;20968;42.696;23.360;2022-11-12T04:57:11;14.10;;;7.00;;
34741;SDS011;20968;42.696;23.360;2022-11-12T04:59:36;8.52;;;4.80;;
34741;SDS011;20968;42.696;23.360;2022-11-12T05:02:02;8.73;;;5.35;;
34741;SDS011;20968;42.696;23.360;2022-11-12T05:04:27;6.70;;;4.55;;
34741;SDS011;20968;42.696;23.360;2022-11-12T05:06:54;7.07;;;4.78;;
34741;SDS011;20968;42.696;23.360;2022-11-12T05:09:21;7.55;;;5.10;;
34741;SDS011;20968;42.696;23.360;2022-11-12T05:11:48;7.22;;;3.90;;
34741;SDS011;20968;42.696;23.360;2022-11-12T05:14:14;9.57;;;3.85;;
34741;SDS011;20968;42.696;23.360;2022-11-12T05:16:40;7.20;;;4.38;;
34741;SDS011;20968;42.696;23.360;2022-11-12T05:19:05;6.40;;;4.05;;
34741;SDS011;20968;42.696;23.360;2022-11-12T05:21:31;7.57;;;4.85;;
34741;SDS011;20968;42.696;23.360;2022-11-12T05:26:40;6.63;;;4.30;;
34741;SDS011;20968;42.696;23.360;2022-11-12T05:29:05;13.45;;;6.68;;
34741;SDS011;20968;42.696;23.360;2022-11-12T05:31:32;11.52;;;5.60;;
34741;SDS011;20968;42.696;23.360;2022-11-12T05:33:57;9.57;;;5.40;;
34741;SDS011;20968;42.696;23.360;2022-11-12T05:36:23;9.70;;;5.15;;
34741;SDS011;20968;42.696;23.360;2022-11-12T05:38:49;10.80;;;6.00;;
34741;SDS011;20968;42.696;23.360;2022-11-12T05:41:14;9.75;;;5.90;;
34741;SDS011;20968;42.696;23.360;2022-11-12T05:43:40;8.70;;;5.75;;
34741;SDS011;20968;42.696;23.360;2022-11-12T05:46:05;12.85;;;6.55;;
34741;SDS011;20968;42.696;23.360;2022-11-12T05:48:31;10.68;;;6.55;;
34741;SDS011;20968;42.696;23.360;2022-11-12T05:50:56;8.90;;;6.00;;
34741;SDS011;20968;42.696;23.360;2022-11-12T05:53:22;12.95;;;6.65;;
34741;SDS011;20968;42.696;23.360;2022-11-12T05:55:47;9.05;;;5.50;;
34741;SDS011;20968;42.696;23.360;2022-11-12T05:58:13;8.93;;;5.65;;
34741;SDS011;20968;42.696;23.360;2022-11-12T06:00:38;7.47;;;5.43;;
34741;SDS011;20968;42.696;23.360;2022-11-12T06:03:04;10.38;;;6.57;;
34741;SDS011;20968;42.696;23.360;2022-11-12T06:05:31;13.88;;;6.32;;
34741;SDS011;20968;42.696;23.360;2022-11-12T06:07:57;12.48;;;8.40;;
34741;SDS011;20968;42.696;23.360;2022-11-12T06:10:22;9.10;;;5.75;;
34741;SDS011;20968;42.696;23.360;2022-11-12T06:12:48;8.60;;;5.53;;
34741;SDS011;20968;42.696;23.360;2022-11-12T06:15:13;9.45;;;5.93;;
34741;SDS011;20968;42.696;23.360;2022-11-12T06:17:39;13.07;;;6.32;;
34741;SDS011;20968;42.696;23.360;2022-11-12T06:20:04;9.95;;;6.70;;
34741;SDS011;20968;42.696;23.360;2022-11-12T06:22:30;13.00;;;6.85;;
34741;SDS011;20968;42.696;23.360;2022-11-12T06:24:55;11.75;;;7.20;;
34741;SDS011;20968;42.696;23.360;2022-11-12T06:27:21;12.90;;;7.15;;
34741;SDS011;20968;42.696;23.360;2022-11-12T06:29:48;10.35;;;6.53;;
34741;SDS011;20968;42.696;23.360;2022-11-12T06:32:13;12.88;;;6.40;;
34741;SDS011;20968;42.696;23.360;2022-11-12T06:34:39;8.82;;;6.10;;
34741;SDS011;20968;42.696;23.360;2022-11-12T06:37:04;13.68;;;7.32;;
34741;SDS011;20968;42.696;23.360;2022-11-12T06:39:30;11.00;;;6.35;;
34741;SDS011;20968;42.696;23.360;2022-11-12T06:41:55;9.82;;;6.07;;
34741;SDS011;20968;42.696;23.360;2022-11-12T06:44:21;16.25;;;7.35;;
34741;SDS011;20968;42.696;23.360;2022-11-12T06:46:46;12.20;;;6.97;;
34741;SDS011;20968;42.696;23.360;2022-11-12T06:49:11;12.93;;;6.47;;
34741;SDS011;20968;42.696;23.360;2022-11-12T06:51:37;17.48;;;7.93;;
34741;SDS011;20968;42.696;23.360;2022-11-12T06:54:04;12.52;;;7.00;;
34741;SDS011;20968;42.696;23.360;2022-11-12T06:56:29;10.40;;;7.03;;
34741;SDS011;20968;42.696;23.360;2022-11-12T06:58:55;10.40;;;7.05;;
34741;SDS011;20968;42.696;23.360;2022-11-12T07:01:20;13.20;;;7.03;;
34741;SDS011;20968;42.696;23.360;2022-11-12T07:03:49;15.30;;;7.43;;
34741;SDS011;20968;42.696;23.360;2022-11-12T07:06:16;11.38;;;6.00;;
34741;SDS011;20968;42.696;23.360;2022-11-12T07:08:47;9.98;;;6.13;;
34741;SDS011;20968;42.696;23.360;2022-11-12T07:11:14;10.27;;;7.10;;
34741;SDS011;20968;42.696;23.360;2022-11-12T07:13:41;13.75;;;7.43;;
34741;SDS011;20968;42.696;23.360;2022-11-12T07:16:08;12.55;;;6.95;;
34741;SDS011;20968;42.696;23.360;2022-11-12T07:18:35;10.07;;;6.47;;
34741;SDS011;20968;42.696;23.360;2022-11-12T07:21:02;11.38;;;6.90;;
34741;SDS011;20968;42.696;23.360;2022-11-12T07:23:32;11.43;;;6.70;;
34741;SDS011;20968;42.696;23.360;2022-11-12T07:25:59;12.73;;;6.32;;
34741;SDS011;20968;42.696;23.360;2022-11-12T07:28:26;11.80;;;5.85;;
34741;SDS011;20968;42.696;23.360;2022-11-12T07:31:00;9.77;;;6.72;;
34741;SDS011;20968;42.696;23.360;2022-11-12T07:33:28;9.93;;;6.07;;
34741;SDS011;20968;42.696;23.360;2022-11-12T07:36:01;9.25;;;6.00;;
34741;SDS011;20968;42.696;23.360;2022-11-12T07:38:29;12.75;;;7.03;;
34741;SDS011;20968;42.696;23.360;2022-11-12T07:41:14;14.70;;;7.78;;
34741;SDS011;20968;42.696;23.360;2022-11-12T07:43:42;12.93;;;7.28;;
34741;SDS011;20968;42.696;23.360;2022-11-12T07:46:10;10.77;;;6.38;;
34741;SDS011;20968;42.696;23.360;2022-11-12T07:48:37;10.55;;;6.00;;
34741;SDS011;20968;42.696;23.360;2022-11-12T07:53:30;6.70;;;4.65;;
34741;SDS011;20968;42.696;23.360;2022-11-12T07:55:57;8.65;;;5.00;;
34741;SDS011;20968;42.696;23.360;2022-11-12T07:58:24;7.53;;;4.93;;
34741;SDS011;20968;42.696;23.360;2022-11-12T08:00:51;8.10;;;4.43;;
34741;SDS011;20968;42.696;23.360;2022-11-12T08:03:17;7.97;;;5.07;;
34741;SDS011;20968;42.696;23.360;2022-11-12T08:05:43;10.15;;;5.57;;
34741;SDS011;20968;42.696;23.360;2022-11-12T08:08:08;8.07;;;5.85;;
34741;SDS011;20968;42.696;23.360;2022-11-12T08:10:35;11.95;;;7.38;;
34741;SDS011;20968;42.696;23.360;2022-11-12T08:13:00;10.85;;;6.82;;
34741;SDS011;20968;42.696;23.360;2022-11-12T08:15:26;16.80;;;6.50;;
34741;SDS011;20968;42.696;23.360;2022-11-12T08:17:51;15.90;;;8.35;;
34741;SDS011;20968;42.696;23.360;2022-11-12T08:20:17;27.92;;;14.30;;
34741;SDS011;20968;42.696;23.360;2022-11-12T08:22:42;16.70;;;9.80;;
34741;SDS011;20968;42.696;23.360;2022-11-12T08:25:08;28.30;;;11.65;;
34741;SDS011;20968;42.696;23.360;2022-11-12T08:27:33;31.38;;;15.93;;
34741;SDS011;20968;42.696;23.360;2022-11-12T08:29:59;16.73;;;7.80;;
34741;SDS011;20968;42.696;23.360;2022-11-12T08:32:24;21.83;;;10.02;;
34741;SDS011;20968;42.696;23.360;2022-11-12T08:34:50;14.38;;;6.63;;
34741;SDS011;20968;42.696;23.360;2022-11-12T08:37:15;17.55;;;9.55;;
34741;SDS011;20968;42.696;23.360;2022-11-12T08:39:40;15.68;;;7.68;;
34741;SDS011;20968;42.696;23.360;2022-11-12T08:42:06;6.60;;;4.10;;
34741;SDS011;20968;42.696;23.360;2022-11-12T08:44:31;7.05;;;5.05;;
34741;SDS011;20968;42.696;23.360;2022-11-12T08:46:57;13.82;;;6.38;;
34741;SDS011;20968;42.696;23.360;2022-11-12T08:49:23;39.65;;;15.13;;
34741;SDS011;20968;42.696;23.360;2022-11-12T08:51:48;10.95;;;5.35;;
34741;SDS011;20968;42.696;23.360;2022-11-12T08:54:14;8.52;;;4.22;;
34741;SDS011;20968;42.696;23.360;2022-11-12T08:56:39;11.77;;;5.82;;
34741;SDS011;20968;42.696;23.360;2022-11-12T08:59:05;9.23;;;4.45;;
34741;SDS011;20968;42.696;23.360;2022-11-12T09:01:30;5.15;;;4.05;;
34741;SDS011;20968;42.696;23.360;2022-11-12T09:03:55;7.47;;;3.67;;
34741;SDS011;20968;42.696;23.360;2022-11-12T09:06:21;9.57;;;3.75;;
34741;SDS011;20968;42.696;23.360;2022-11-12T09:08:46;4.25;;;2.80;;
34741;SDS011;20968;42.696;23.360;2022-11-12T09:11:11;3.80;;;2.40;;
34741;SDS011;20968;42.696;23.360;2022-11-12T09:13:37;2.95;;;2.58;;
34741;SDS011;20968;42.696;23.360;2022-11-12T09:16:04;3.20;;;2.15;;
34741;SDS011;20968;42.696;23.360;2022-11-12T09:18:31;4.75;;;2.38;;
34741;SDS011;20968;42.696;23.360;2022-11-12T09:20:58;2.85;;;1.77;;
34741;SDS011;20968;42.696;23.360;2022-11-12T09:23:34;2.67;;;2.00;;
34741;SDS011;20968;42.696;23.360;2022-11-12T09:26:01;4.15;;;2.30;;
34741;SDS011;20968;42.696;23.360;2022-11-12T09:28:27;3.25;;;2.45;;
34741;SDS011;20968;42.696;23.360;2022-11-12T09:30:53;4.57;;;2.35;;
34741;SDS011;20968;42.696;23.360;2022-11-12T09:33:23;4.07;;;2.30;;
34741;SDS011;20968;42.696;23.360;2022-11-12T09:35:50;3.63;;;2.20;;
34741;SDS011;20968;42.696;23.360;2022-11-12T09:38:16;2.25;;;1.88;;
34741;SDS011;20968;42.696;23.360;2022-11-12T09:43:19;3.17;;;1.98;;
34741;SDS011;20968;42.696;23.360;2022-11-12T09:45:49;4.00;;;2.65;;
34741;SDS011;20968;42.696;23.360;2022-11-12T09:48:19;5.15;;;2.65;;
34741;SDS011;20968;42.696;23.360;2022-11-12T09:50:52;6.30;;;2.35;;
34741;SDS011;20968;42.696;23.360;2022-11-12T09:53:32;5.43;;;2.72;;
34741;SDS011;20968;42.696;23.360;2022-11-12T09:56:05;5.15;;;2.72;;
34741;SDS011;20968;42.696;23.360;2022-11-12T09:58:31;9.95;;;3.10;;
34741;SDS011;20968;42.696;23.360;2022-11-12T10:01:02;5.10;;;2.00;;
34741;SDS011;20968;42.696;23.360;2022-11-12T10:06:34;4.55;;;2.15;;
34741;SDS011;20968;42.696;23.360;2022-11-12T10:09:10;3.83;;;3.00;;
34741;SDS011;20968;42.696;23.360;2022-11-12T10:18:30;5.03;;;2.92;;
34741;SDS011;20968;42.696;23.360;2022-11-12T10:23:53;4.32;;;3.08;;
34741;SDS011;20968;42.696;23.360;2022-11-12T10:26:20;6.57;;;3.22;;
34741;SDS011;20968;42.696;23.360;2022-11-12T10:28:48;4.32;;;2.60;;
34741;SDS011;20968;42.696;23.360;2022-11-12T10:31:37;5.53;;;2.72;;
34741;SDS011;20968;42.696;23.360;2022-11-12T10:36:39;5.43;;;4.10;;
34741;SDS011;20968;42.696;23.360;2022-11-12T10:39:08;9.80;;;4.18;;
34741;SDS011;20968;42.696;23.360;2022-11-12T10:41:34;9.95;;;4.57;;
34741;SDS011;20968;42.696;23.360;2022-11-12T10:44:04;11.20;;;4.45;;
34741;SDS011;20968;42.696;23.360;2022-11-12T10:46:32;11.43;;;4.32;;
34741;SDS011;20968;42.696;23.360;2022-11-12T10:49:00;7.28;;;4.25;;
34741;SDS011;20968;42.696;23.360;2022-11-12T10:51:36;10.52;;;5.07;;
34741;SDS011;20968;42.696;23.360;2022-11-12T10:57:19;17.65;;;7.30;;
34741;SDS011;20968;42.696;23.360;2022-11-12T10:59:44;9.55;;;5.32;;
34741;SDS011;20968;42.696;23.360;2022-11-12T11:02:16;8.82;;;5.05;;
34741;SDS011;20968;42.696;23.360;2022-11-12T11:04:43;6.40;;;4.40;;
34741;SDS011;20968;42.696;23.360;2022-11-12T11:07:22;6.63;;;4.10;;
34741;SDS011;20968;42.696;23.360;2022-11-12T11:09:56;5.45;;;4.43;;
34741;SDS011;20968;42.696;23.360;2022-11-12T11:12:29;14.35;;;6.90;;
34741;SDS011;20968;42.696;23.360;2022-11-12T11:17:31;6.00;;;4.45;;
34741;SDS011;20968;42.696;23.360;2022-11-12T11:19:58;8.10;;;4.90;;
34741;SDS011;20968;42.696;23.360;2022-11-12T11:22:28;8.55;;;6.10;;
34741;SDS011;20968;42.696;23.360;2022-11-12T11:30:19;8.10;;;4.88;;
34741;SDS011;20968;42.696;23.360;2022-11-12T11:44:03;8.63;;;4.15;;
34741;SDS011;20968;42.696;23.360;2022-11-12T11:46:44;6.75;;;2.85;;
34741;SDS011;20968;42.696;23.360;2022-11-12T11:55:06;3.65;;;2.85;;
34741;SDS011;20968;42.696;23.360;2022-11-12T12:06:56;5.25;;;3.50;;
34741;SDS011;20968;42.696;23.360;2022-11-12T12:17:57;8.90;;;5.80;;
34741;SDS011;20968;42.696;23.360;2022-11-12T12:23:09;9.25;;;4.65;;
34741;SDS011;20968;42.696;23.360;2022-11-12T12:25:45;5.50;;;4.57;;
34741;SDS011;20968;42.696;23.360;2022-11-12T12:30:57;7.85;;;5.53;;
34741;SDS011;20968;42.696;23.360;2022-11-12T12:36:17;5.82;;;4.15;;
34741;SDS011;20968;42.696;23.360;2022-11-12T12:39:08;8.27;;;5.43;;
34741;SDS011;20968;42.696;23.360;2022-11-12T12:41:41;12.07;;;7.45;;
34741;SDS011;20968;42.696;23.360;2022-11-12T12:44:14;7.45;;;4.72;;
34741;SDS011;20968;42.696;23.360;2022-11-12T12:46:41;6.20;;;3.78;;
34741;SDS011;20968;42.696;23.360;2022-11-12T12:49:14;6.47;;;3.80;;
34741;SDS011;20968;42.696;23.360;2022-11-12T12:51:43;5.32;;;4.38;;
34741;SDS011;20968;42.696;23.360;2022-11-12T12:56:59;16.63;;;8.38;;
34741;SDS011;20968;42.696;23.360;2022-11-12T12:59:27;9.27;;;5.75;;
34741;SDS011;20968;42.696;23.360;2022-11-12T13:01:57;8.60;;;5.47;;
34741;SDS011;20968;42.696;23.360;2022-11-12T13:07:21;6.60;;;3.67;;
34741;SDS011;20968;42.696;23.360;2022-11-12T13:10:32;14.65;;;6.18;;
34741;SDS011;20968;42.696;23.360;2022-11-12T13:13:02;10.38;;;5.20;;
34741;SDS011;20968;42.696;23.360;2022-11-12T13:15:42;16.10;;;6.40;;
34741;SDS011;20968;42.696;23.360;2022-11-12T13:18:08;11.43;;;6.03;;
34741;SDS011;20968;42.696;23.360;2022-11-12T13:20:40;10.80;;;5.50;;
34741;SDS011;20968;42.696;23.360;2022-11-12T13:23:07;10.02;;;5.25;;
34741;SDS011;20968;42.696;23.360;2022-11-12T13:25:34;8.32;;;4.50;;
34741;SDS011;20968;42.696;23.360;2022-11-12T13:28:05;10.55;;;5.22;;
34741;SDS011;20968;42.696;23.360;2022-11-12T13:32:59;10.13;;;5.50;;
34741;SDS011;20968;42.696;23.360;2022-11-12T13:35:27;11.38;;;6.53;;
34741;SDS011;20968;42.696;23.360;2022-11-12T13:46:34;7.07;;;4.23;;
34741;SDS011;20968;42.696;23.360;2022-11-12T13:49:01;7.20;;;3.55;;
34741;SDS011;20968;42.696;23.360;2022-11-12T13:53:56;18.10;;;9.63;;
34741;SDS011;20968;42.696;23.360;2022-11-12T13:56:24;28.23;;;13.65;;
34741;SDS011;20968;42.696;23.360;2022-11-12T13:58:52;23.17;;;13.35;;
34741;SDS011;20968;42.696;23.360;2022-11-12T14:01:18;22.45;;;10.43;;
34741;SDS011;20968;42.696;23.360;2022-11-12T14:03:47;15.10;;;7.75;;
34741;SDS011;20968;42.696;23.360;2022-11-12T14:06:21;18.52;;;10.63;;
34741;SDS011;20968;42.696;23.360;2022-11-12T14:14:18;10.63;;;5.82;;
34741;SDS011;20968;42.696;23.360;2022-11-12T14:22:11;10.32;;;5.47;;
34741;SDS011;20968;42.696;23.360;2022-11-12T14:24:39;10.75;;;5.13;;
34741;SDS011;20968;42.696;23.360;2022-11-12T14:27:31;6.47;;;4.70;;
34741;SDS011;20968;42.696;23.360;2022-11-12T14:30:03;7.30;;;4.72;;
34741;SDS011;20968;42.696;23.360;2022-11-12T14:32:39;5.97;;;3.80;;
34741;SDS011;20968;42.696;23.360;2022-11-12T14:37:51;8.38;;;4.43;;
34741;SDS011;20968;42.696;23.360;2022-11-12T14:40:26;15.15;;;6.70;;
34741;SDS011;20968;42.696;23.360;2022-11-12T14:42:53;12.38;;;6.80;;
34741;SDS011;20968;42.696;23.360;2022-11-12T14:45:20;10.73;;;6.63;;
34741;SDS011;20968;42.696;23.360;2022-11-12T14:47:47;12.65;;;5.60;;
34741;SDS011;20968;42.696;23.360;2022-11-12T14:50:19;9.73;;;4.57;;
34741;SDS011;20968;42.696;23.360;2022-11-12T14:53:07;4.22;;;3.20;;
34741;SDS011;20968;42.696;23.360;2022-11-12T14:55:40;7.85;;;3.33;;
34741;SDS011;20968;42.696;23.360;2022-11-12T14:58:13;5.97;;;3.53;;
34741;SDS011;20968;42.696;23.360;2022-11-12T15:00:43;10.90;;;5.80;;
34741;SDS011;20968;42.696;23.360;2022-11-12T15:03:11;10.10;;;6.28;;
34741;SDS011;20968;42.696;23.360;2022-11-12T15:05:51;7.40;;;4.10;;
34741;SDS011;20968;42.696;23.360;2022-11-12T15:08:29;5.95;;;4.03;;
34741;SDS011;20968;42.696;23.360;2022-11-12T15:10:57;11.82;;;6.40;;
34741;SDS011;20968;42.696;23.360;2022-11-12T15:13:52;10.27;;;5.68;;
34741;SDS011;20968;42.696;23.360;2022-11-12T15:16:25;7.10;;;4.18;;
34741;SDS011;20968;42.696;23.360;2022-11-12T15:18:59;5.97;;;4.05;;
34741;SDS011;20968;42.696;23.360;2022-11-12T15:21:26;6.70;;;5.15;;
34741;SDS011;20968;42.696;23.360;2022-11-12T15:26:33;9.05;;;5.90;;
34741;SDS011;20968;42.696;23.360;2022-11-12T15:29:45;13.25;;;7.18;;
34741;SDS011;20968;42.696;23.360;2022-11-12T15:31:55;19.75;;;9.13;;
34741;SDS011;20968;42.696;23.360;2022-11-12T15:37:09;11.65;;;6.55;;
34741;SDS011;20968;42.696;23.360;2022-11-12T15:39:40;8.60;;;5.32;;
34741;SDS011;20968;42.696;23.360;2022-11-12T15:42:13;8.18;;;4.88;;
34741;SDS011;20968;42.696;23.360;2022-11-12T15:44:41;8.75;;;6.32;;
34741;SDS011;20968;42.696;23.360;2022-11-12T15:47:08;14.40;;;7.78;;
34741;SDS011;20968;42.696;23.360;2022-11-12T15:49:55;20.33;;;10.85;;
34741;SDS011;20968;42.696;23.360;2022-11-12T15:52:23;30.40;;;15.18;;
34741;SDS011;20968;42.696;23.360;2022-11-12T15:54:49;35.00;;;17.90;;
34741;SDS011;20968;42.696;23.360;2022-11-12T15:57:16;34.83;;;17.13;;
34741;SDS011;20968;42.696;23.360;2022-11-12T15:59:52;31.02;;;12.32;;
34741;SDS011;20968;42.696;23.360;2022-11-12T16:02:30;31.75;;;16.95;;
34741;SDS011;20968;42.696;23.360;2022-11-12T16:04:56;35.70;;;22.20;;
34741;SDS011;20968;42.696;23.360;2022-11-12T16:07:21;39.45;;;22.73;;
34741;SDS011;20968;42.696;23.360;2022-11-12T16:09:47;41.38;;;23.98;;
34741;SDS011;20968;42.696;23.360;2022-11-12T16:12:12;46.63;;;26.50;;
34741;SDS011;20968;42.696;23.360;2022-11-12T16:14:39;39.53;;;24.33;;
34741;SDS011;20968;42.696;23.360;2022-11-12T16:17:12;37.90;;;22.67;;
34741;SDS011;20968;42.696;23.360;2022-11-12T16:19:39;31.67;;;18.90;;
34741;SDS011;20968;42.696;23.360;2022-11-12T16:22:04;35.28;;;20.08;;
34741;SDS011;20968;42.696;23.360;2022-11-12T16:24:36;26.20;;;14.93;;
34741;SDS011;20968;42.696;23.360;2022-11-12T16:27:12;27.25;;;15.07;;
34741;SDS011;20968;42.696;23.360;2022-11-12T16:29:38;27.30;;;15.60;;
34741;SDS011;20968;42.696;23.360;2022-11-12T16:32:04;31.50;;;15.90;;
34741;SDS011;20968;42.696;23.360;2022-11-12T16:34:31;25.90;;;12.32;;
34741;SDS011;20968;42.696;23.360;2022-11-12T16:36:56;25.90;;;12.75;;
34741;SDS011;20968;42.696;23.360;2022-11-12T16:39:22;19.35;;;11.45;;
34741;SDS011;20968;42.696;23.360;2022-11-12T16:41:48;28.95;;;14.40;;
34741;SDS011;20968;42.696;23.360;2022-11-12T16:44:13;31.73;;;17.25;;
34741;SDS011;20968;42.696;23.360;2022-11-12T16:46:39;36.38;;;17.80;;
34741;SDS011;20968;42.696;23.360;2022-11-12T16:49:15;27.00;;;12.80;;